Time;durP1;ratioP1;P1;durP2;ratioP2;P2;SDS_P1;SDS_P2;PMS_P1;PMS_P2;Temp;Humidity;BMP_temperature;BMP_pressure;BME280_temperature;BME280_humidity;BME280_pressure;Samples;Min_cycle;Max_cycle;Signal;HPM_P1;HPM_P2
2023/10/30 00:01:42;;;;;;;12.68;2.78;;;;;;;10.66;100.00;99750.94;5033245;28;20037;-65
2023/10/30 00:04:07;;;;;;;10.43;2.75;;;;;;;10.67;100.00;99756.25;5033042;28;20079;-65
2023/10/30 00:06:33;;;;;;;16.38;2.88;;;;;;;10.68;100.00;99762.41;5032706;28;20386;-65
2023/10/30 00:08:58;;;;;;;13.63;2.80;;;;;;;10.69;100.00;99758.88;5032788;28;20041;-65
2023/10/30 00:11:24;;;;;;;10.15;2.70;;;;;;;10.69;100.00;99764.16;5033064;28;20033;-65
2023/10/30 00:13:49;;;;;;;7.30;2.40;;;;;;;10.69;100.00;99757.09;5033141;28;20076;-66
2023/10/30 00:16:15;;;;;;;13.20;2.90;;;;;;;10.67;100.00;99764.16;5031530;28;20030;-65
2023/10/30 00:18:41;;;;;;;13.63;2.90;;;;;;;10.65;100.00;99763.28;5033106;28;20033;-65
2023/10/30 00:21:08;;;;;;;11.20;2.63;;;;;;;10.64;100.00;99780.03;5032721;28;20030;-64
2023/10/30 00:23:33;;;;;;;10.95;2.97;;;;;;;10.61;100.00;99777.41;5032930;28;20071;-65
2023/10/30 00:25:59;;;;;;;12.15;2.58;;;;;;;10.62;100.00;99787.09;5032692;28;20025;-63
2023/10/30 00:28:25;;;;;;;12.40;3.10;;;;;;;10.63;100.00;99795.91;5032858;28;20079;-65
2023/10/30 00:30:50;;;;;;;10.32;2.28;;;;;;;10.63;100.00;99801.19;5032728;28;20034;-64
2023/10/30 00:33:16;;;;;;;12.63;2.47;;;;;;;10.58;100.00;99793.28;5032721;28;20398;-64
2023/10/30 00:35:43;;;;;;;11.93;2.70;;;;;;;10.57;100.00;99807.38;5032605;28;20042;-64
2023/10/30 00:38:08;;;;;;;12.98;2.55;;;;;;;10.57;100.00;99812.66;5032167;28;20045;-64
2023/10/30 00:40:33;;;;;;;10.50;2.70;;;;;;;10.56;100.00;99813.53;5031334;28;20028;-65
2023/10/30 00:42:59;;;;;;;13.57;2.80;;;;;;;10.53;100.00;99806.53;5032564;28;20021;-66
2023/10/30 00:45:24;;;;;;;14.43;2.70;;;;;;;10.53;100.00;99814.47;5031442;28;20114;-65
2023/10/30 00:47:50;;;;;;;11.05;2.70;;;;;;;10.52;100.00;99819.72;5032434;28;20045;-64
2023/10/30 00:50:15;;;;;;;12.32;2.95;;;;;;;10.53;100.00;99816.19;5034741;28;20030;-65
2023/10/30 00:52:41;;;;;;;10.15;2.50;;;;;;;10.51;100.00;99832.06;5036257;28;20026;-65
2023/10/30 00:55:06;;;;;;;13.90;2.63;;;;;;;10.52;100.00;99827.66;5036278;28;20025;-65
2023/10/30 00:57:32;;;;;;;13.35;3.22;;;;;;;10.52;100.00;99833.81;5036516;28;20036;-65
2023/10/30 00:59:57;;;;;;;16.45;2.75;;;;;;;10.53;100.00;99835.59;5036148;28;20029;-65
2023/10/30 01:02:22;;;;;;;13.50;2.60;;;;;;;10.54;100.00;99836.47;5036155;28;20068;-66
2023/10/30 01:04:48;;;;;;;8.88;2.38;;;;;;;10.55;100.00;99843.50;5036100;28;20053;-65
2023/10/30 01:07:13;;;;;;;12.93;2.97;;;;;;;10.57;100.00;99844.34;5035676;28;20390;-65
2023/10/30 01:09:38;;;;;;;12.48;3.10;;;;;;;10.59;100.00;99839.06;5036033;28;20108;-66
2023/10/30 01:12:04;;;;;;;10.07;2.50;;;;;;;10.60;100.00;99843.47;5035967;28;20095;-65
2023/10/30 01:14:30;;;;;;;13.38;2.78;;;;;;;10.62;100.00;99846.97;5036243;28;20368;-65
2023/10/30 01:16:55;;;;;;;18.58;2.80;;;;;;;10.64;100.00;99858.41;5035957;28;20398;-65
2023/10/30 01:19:20;;;;;;;14.10;2.63;;;;;;;10.63;100.00;99857.53;5034554;28;20124;-64
2023/10/30 01:21:46;;;;;;;16.90;2.60;;;;;;;10.65;100.00;99860.16;5035644;28;20029;-64
2023/10/30 01:24:11;;;;;;;12.55;2.45;;;;;;;10.65;100.00;99857.53;5035987;28;20026;-64
2023/10/30 01:26:38;;;;;;;13.82;3.22;;;;;;;10.66;100.00;99860.19;5035861;28;20449;-65
2023/10/30 01:29:04;;;;;;;9.40;2.60;;;;;;;10.69;100.00;99857.50;5035671;28;20100;-65
2023/10/30 01:31:30;;;;;;;14.13;2.60;;;;;;;10.71;100.00;99854.88;5035682;28;20052;-64
2023/10/30 01:33:55;;;;;;;11.55;2.53;;;;;;;10.71;100.00;99853.09;5035502;28;20037;-66
2023/10/30 01:36:21;;;;;;;10.38;2.90;;;;;;;10.78;100.00;99853.91;5035428;28;20207;-65
2023/10/30 01:38:47;;;;;;;11.40;2.70;;;;;;;10.78;100.00;99844.22;5034512;28;20403;-64
2023/10/30 01:41:12;;;;;;;12.00;2.63;;;;;;;10.76;100.00;99847.78;5034628;28;20486;-65
2023/10/30 01:43:37;;;;;;;10.48;2.42;;;;;;;10.77;100.00;99839.84;5032902;28;20406;-65
2023/10/30 01:46:03;;;;;;;11.25;2.70;;;;;;;10.77;100.00;99852.16;5034183;28;20021;-65
2023/10/30 01:48:32;;;;;;;10.75;2.75;;;;;;;10.80;100.00;99844.22;5034251;28;20069;-65
2023/10/30 01:50:59;;;;;;;9.70;2.50;;;;;;;10.80;100.00;99851.28;5034455;28;20064;-66
2023/10/30 01:53:26;;;;;;;10.98;2.53;;;;;;;10.82;100.00;99852.13;5034044;28;20017;-64
2023/10/30 01:55:52;;;;;;;12.13;2.58;;;;;;;10.82;100.00;99855.66;5034271;28;20044;-65
2023/10/30 01:58:18;;;;;;;13.93;2.42;;;;;;;10.82;100.00;99847.72;5034106;28;20030;-65
2023/10/30 02:00:47;;;;;;;13.52;2.67;;;;;;;10.82;100.00;99863.59;5034074;28;20041;-64
2023/10/30 02:03:13;;;;;;;9.07;2.67;;;;;;;10.83;100.00;99861.81;5033944;28;20025;-65
2023/10/30 02:05:40;;;;;;;12.00;2.58;;;;;;;10.83;100.00;99869.75;5033737;28;20036;-65
2023/10/30 02:08:05;;;;;;;10.63;2.50;;;;;;;10.82;100.00;99871.50;5033795;28;20029;-63
2023/10/30 02:10:31;;;;;;;10.40;2.80;;;;;;;10.85;100.00;99866.22;5034163;28;20037;-65
2023/10/30 02:12:56;;;;;;;10.90;2.42;;;;;;;10.86;100.00;99864.44;5033995;28;20037;-66
2023/10/30 02:15:22;;;;;;;10.73;2.33;;;;;;;10.88;100.00;99863.56;5033819;28;20564;-65
2023/10/30 02:17:47;;;;;;;16.02;3.22;;;;;;;10.87;100.00;99866.19;5033918;28;20497;-66
2023/10/30 02:20:13;;;;;;;13.13;2.78;;;;;;;10.87;100.00;99863.56;5033807;28;20037;-64
2023/10/30 02:22:38;;;;;;;13.00;2.30;;;;;;;10.85;100.00;99858.28;5033629;28;20017;-66
2023/10/30 02:25:05;;;;;;;14.20;2.40;;;;;;;10.84;100.00;99864.47;5033674;28;20030;-67
2023/10/30 02:27:30;;;;;;;12.70;3.05;;;;;;;10.84;100.00;99866.25;5033878;28;20055;-65
2023/10/30 02:29:56;;;;;;;10.40;2.85;;;;;;;10.82;100.00;99860.06;5033567;28;20515;-64
2023/10/30 02:32:21;;;;;;;13.13;3.00;;;;;;;10.82;100.00;99862.72;5033522;28;20044;-63
2023/10/30 02:34:47;;;;;;;14.38;2.78;;;;;;;10.80;100.00;99864.50;5033446;28;20028;-65
2023/10/30 02:37:12;;;;;;;10.05;2.38;;;;;;;10.80;100.00;99867.16;5033103;28;20057;-64
2023/10/30 02:39:38;;;;;;;10.68;2.55;;;;;;;10.77;100.00;99855.69;4995365;28;1113420;-64
2023/10/30 02:42:04;;;;;;;7.88;2.22;;;;;;;10.76;100.00;99855.72;5034409;28;20037;-65
2023/10/30 02:44:30;;;;;;;12.57;2.65;;;;;;;10.76;100.00;99859.22;5034636;28;20383;-64
2023/10/30 02:46:55;;;;;;;9.70;2.58;;;;;;;10.78;100.00;99851.28;5034156;28;20546;-65
2023/10/30 02:49:22;;;;;;;10.95;2.80;;;;;;;10.76;100.00;99845.13;5034433;28;20109;-65
2023/10/30 02:51:47;;;;;;;11.70;2.70;;;;;;;10.76;100.00;99846.00;5034122;28;20025;-65
2023/10/30 02:54:13;;;;;;;10.50;2.30;;;;;;;10.76;100.00;99846.00;5034060;28;20025;-65
2023/10/30 02:56:38;;;;;;;12.93;2.50;;;;;;;10.75;100.00;99844.25;5034041;28;20068;-64
2023/10/30 02:59:03;;;;;;;14.63;2.65;;;;;;;10.76;100.00;99846.00;5034348;28;20029;-65
2023/10/30 03:01:29;;;;;;;15.18;3.17;;;;;;;10.76;100.00;99850.44;5034016;28;20037;-64
2023/10/30 03:03:55;;;;;;;8.77;2.30;;;;;;;10.75;100.00;99841.63;5033885;28;20022;-65
2023/10/30 03:06:20;;;;;;;10.00;2.45;;;;;;;10.78;100.00;99843.34;5033632;28;20030;-64
2023/10/30 03:08:46;;;;;;;15.18;2.75;;;;;;;10.81;100.00;99850.38;5033830;28;20445;-66
2023/10/30 03:11:11;;;;;;;9.50;2.47;;;;;;;10.80;100.00;99846.88;5033878;28;20033;-64
2023/10/30 03:13:36;;;;;;;8.65;2.22;;;;;;;10.82;100.00;99857.44;5033424;28;20560;-64
2023/10/30 03:16:02;;;;;;;14.00;2.70;;;;;;;10.77;100.00;99846.88;5033841;28;20040;-65
2023/10/30 03:18:28;;;;;;;11.07;2.58;;;;;;;10.80;100.00;99852.16;5033736;28;20033;-65
2023/10/30 03:20:53;;;;;;;12.65;2.33;;;;;;;10.81;100.00;99860.97;5033850;28;20034;-65
2023/10/30 03:23:20;;;;;;;11.95;2.97;;;;;;;10.83;100.00;99864.47;5033586;28;20017;-65
2023/10/30 03:25:46;;;;;;;12.13;2.72;;;;;;;10.83;100.00;99869.75;5033627;28;20033;-64
2023/10/30 03:28:11;;;;;;;9.43;2.33;;;;;;;10.81;100.00;99866.25;5033712;28;20040;-65
2023/10/30 03:30:37;;;;;;;10.10;2.30;;;;;;;10.80;100.00;99870.66;5033437;28;20022;-64
2023/10/30 03:33:03;;;;;;;6.82;2.40;;;;;;;10.78;100.00;99864.50;5033524;28;20487;-65
2023/10/30 03:35:29;;;;;;;11.15;2.50;;;;;;;10.77;100.00;99866.25;5033366;28;20033;-65
2023/10/30 03:37:54;;;;;;;10.18;2.47;;;;;;;10.77;100.00;99865.38;5032927;28;20107;-66
2023/10/30 03:40:19;;;;;;;10.68;2.50;;;;;;;10.76;100.00;99861.88;5033418;28;20047;-64
2023/10/30 03:42:45;;;;;;;11.80;2.80;;;;;;;10.72;100.00;99860.13;5031949;28;20029;-64
2023/10/30 03:45:10;;;;;;;12.00;2.60;;;;;;;10.73;100.00;99861.00;5033218;28;20032;-64
2023/10/30 03:47:35;;;;;;;9.32;2.58;;;;;;;10.69;100.00;99853.97;5033165;28;20059;-64
2023/10/30 03:50:01;;;;;;;14.25;2.58;;;;;;;10.72;100.00;99861.91;5033170;28;20029;-64
2023/10/30 03:52:27;;;;;;;10.27;2.53;;;;;;;10.70;100.00;99866.28;5033009;28;20183;-64
2023/10/30 03:54:52;;;;;;;12.88;2.90;;;;;;;10.65;100.00;99853.09;5033357;28;20025;-65
2023/10/30 03:57:18;;;;;;;10.85;2.33;;;;;;;10.69;100.00;99868.06;5033037;28;20517;-64
2023/10/30 03:59:43;;;;;;;15.18;2.63;;;;;;;10.68;100.00;99868.09;5033235;28;20036;-65
2023/10/30 04:02:09;;;;;;;14.27;2.35;;;;;;;10.68;100.00;99866.31;5032976;28;20052;-64
2023/10/30 04:04:35;;;;;;;15.40;2.65;;;;;;;10.68;100.00;99873.38;5032869;28;20090;-64
2023/10/30 04:07:02;;;;;;;9.07;2.22;;;;;;;10.66;100.00;99872.47;5032584;28;20163;-65
2023/10/30 04:09:28;;;;;;;11.05;2.40;;;;;;;10.65;100.00;99862.81;5032865;28;20021;-64
2023/10/30 04:11:54;;;;;;;8.18;2.08;;;;;;;10.63;100.00;99865.47;5032848;28;20091;-65
2023/10/30 04:14:19;;;;;;;11.65;2.60;;;;;;;10.61;100.00;99859.28;5032845;28;20034;-65
2023/10/30 04:16:45;;;;;;;10.57;2.50;;;;;;;10.61;100.00;99859.28;5031498;28;20119;-65
2023/10/30 04:19:10;;;;;;;9.40;2.38;;;;;;;10.58;100.00;99864.63;5033079;28;20028;-65
2023/10/30 04:21:36;;;;;;;14.20;2.40;;;;;;;10.56;100.00;99863.72;5032796;28;20053;-63
2023/10/30 04:24:01;;;;;;;10.52;2.15;;;;;;;10.57;100.00;99860.19;5033012;28;20037;-64
2023/10/30 04:26:27;;;;;;;10.60;2.55;;;;;;;10.57;100.00;99864.59;5036721;28;20029;-65
2023/10/30 04:28:52;;;;;;;12.43;2.50;;;;;;;10.57;100.00;99862.84;5036812;28;20464;-65
2023/10/30 04:31:18;;;;;;;8.07;2.38;;;;;;;10.53;100.00;99866.38;5036800;28;20026;-65
2023/10/30 04:33:43;;;;;;;9.10;2.60;;;;;;;10.51;100.00;99865.53;5036835;28;20033;-65
2023/10/30 04:36:08;;;;;;;8.85;2.17;;;;;;;10.49;100.00;99869.91;5036513;28;20033;-65
2023/10/30 04:38:36;;;;;;;10.85;2.80;;;;;;;10.50;100.00;99871.69;5036241;28;20120;-65
2023/10/30 04:41:05;;;;;;;12.13;2.85;;;;;;;10.48;100.00;99869.03;5036887;28;20171;-65
2023/10/30 04:43:32;;;;;;;15.32;2.55;;;;;;;10.46;100.00;99870.81;5036584;28;20033;-64
2023/10/30 04:45:57;;;;;;;8.60;2.38;;;;;;;10.50;100.00;99879.63;5036481;28;20372;-65
2023/10/30 04:48:22;;;;;;;12.65;2.50;;;;;;;10.52;100.00;99877.84;5036651;28;20107;-64
2023/10/30 04:50:48;;;;;;;11.27;2.80;;;;;;;10.49;100.00;99875.19;5036417;28;20026;-65
2023/10/30 04:53:13;;;;;;;10.20;2.55;;;;;;;10.48;100.00;99874.31;5036247;28;20494;-64
2023/10/30 04:55:39;;;;;;;9.00;2.53;;;;;;;10.45;100.00;99873.50;5036384;28;20071;-65
2023/10/30 04:58:04;;;;;;;15.13;3.00;;;;;;;10.44;100.00;99875.22;5036606;28;20057;-65
2023/10/30 05:00:30;;;;;;;7.53;2.47;;;;;;;10.39;100.00;99861.16;5036585;28;20128;-64
2023/10/30 05:02:55;;;;;;;13.57;2.50;;;;;;;10.42;100.00;99866.44;5036105;28;20148;-63
2023/10/30 05:05:20;;;;;;;11.63;2.47;;;;;;;10.40;100.00;99859.41;5036372;28;20040;-65
2023/10/30 05:07:46;;;;;;;9.48;2.40;;;;;;;10.38;100.00;99863.81;5035806;28;20479;-64
2023/10/30 05:10:12;;;;;;;8.48;2.50;;;;;;;10.35;100.00;99855.91;5036095;28;20028;-64
2023/10/30 05:12:38;;;;;;;8.93;2.55;;;;;;;10.30;100.00;99858.56;5036331;28;20435;-65
2023/10/30 05:15:08;;;;;;;9.98;2.47;;;;;;;10.32;100.00;99851.53;5036208;28;20040;-65
2023/10/30 05:17:37;;;;;;;12.30;2.50;;;;;;;10.33;100.00;99862.97;5035892;28;20430;-64
2023/10/30 05:20:03;;;;;;;12.35;2.60;;;;;;;10.30;100.00;99869.13;5036012;28;20033;-64
2023/10/30 05:22:28;;;;;;;10.45;2.60;;;;;;;10.27;100.00;99870.00;5036006;28;20112;-65
2023/10/30 05:24:54;;;;;;;11.07;2.65;;;;;;;10.27;100.00;99877.06;5036064;28;20056;-64
2023/10/30 05:27:19;;;;;;;12.43;2.25;;;;;;;10.25;100.00;99865.63;5035667;28;20386;-63
2023/10/30 05:29:44;;;;;;;10.95;2.28;;;;;;;10.24;100.00;99867.41;5035749;28;20084;-65
2023/10/30 05:32:10;;;;;;;8.75;1.88;;;;;;;10.25;100.00;99857.72;5036107;28;20018;-63
2023/10/30 05:34:36;;;;;;;11.90;2.55;;;;;;;10.26;100.00;99862.09;5035608;28;20493;-64
2023/10/30 05:37:05;;;;;;;11.80;2.45;;;;;;;10.26;100.00;99854.19;5035359;28;20030;-64
2023/10/30 05:39:30;;;;;;;14.07;2.63;;;;;;;10.26;100.00;99846.25;5035429;28;20045;-65
2023/10/30 05:41:56;;;;;;;8.75;2.50;;;;;;;10.25;100.00;99840.09;5035718;28;20025;-65
2023/10/30 05:44:21;;;;;;;11.90;2.40;;;;;;;10.26;100.00;99846.25;5035694;28;20428;-64
2023/10/30 05:46:46;;;;;;;11.48;2.47;;;;;;;10.25;100.00;99849.78;5035338;28;20022;-63
2023/10/30 05:49:12;;;;;;;12.23;2.38;;;;;;;10.26;100.00;99852.41;5035660;28;20033;-64
2023/10/30 05:51:37;;;;;;;8.25;2.38;;;;;;;10.25;100.00;99847.16;5035215;28;20156;-64
2023/10/30 05:54:02;;;;;;;9.00;2.40;;;;;;;10.25;100.00;99848.03;5035396;28;20037;-64
2023/10/30 05:56:28;;;;;;;10.35;2.58;;;;;;;10.25;100.00;99848.03;5034058;28;20483;-65
2023/10/30 05:58:53;;;;;;;13.45;2.50;;;;;;;10.25;100.00;99847.16;5035158;28;20032;-64
2023/10/30 06:01:18;;;;;;;12.65;2.38;;;;;;;10.23;100.00;99844.47;5035014;28;20026;-64
2023/10/30 06:03:44;;;;;;;12.50;2.78;;;;;;;10.24;100.00;99843.63;5035002;28;20391;-65
2023/10/30 06:06:09;;;;;;;9.57;2.60;;;;;;;10.25;100.00;99845.38;5034846;28;20025;-65
2023/10/30 06:08:36;;;;;;;10.68;2.60;;;;;;;10.24;100.00;99841.00;5034538;28;20030;-65
2023/10/30 06:11:02;;;;;;;11.60;2.50;;;;;;;10.23;100.00;99833.03;5035229;28;20475;-65
2023/10/30 06:13:27;;;;;;;12.98;2.70;;;;;;;10.23;100.00;99840.94;5034970;28;20491;-64
2023/10/30 06:15:54;;;;;;;14.10;2.97;;;;;;;10.20;100.00;99844.50;5034822;28;20133;-64
2023/10/30 06:18:21;;;;;;;12.93;2.85;;;;;;;10.19;100.00;99845.41;5034876;28;20083;-64
2023/10/30 06:20:46;;;;;;;9.80;2.38;;;;;;;10.18;100.00;99843.63;5033559;28;20037;-65
2023/10/30 06:23:11;;;;;;;12.05;2.42;;;;;;;10.17;100.00;99854.19;5033770;28;20029;-65
2023/10/30 06:25:37;;;;;;;12.75;2.50;;;;;;;10.17;100.00;99857.69;5034753;28;20543;-63
2023/10/30 06:28:03;;;;;;;15.57;2.85;;;;;;;10.18;100.00;99869.13;5034679;28;20025;-63
2023/10/30 06:30:28;;;;;;;13.25;2.90;;;;;;;10.16;100.00;99873.56;5034584;28;20049;-63
2023/10/30 06:32:54;;;;;;;10.52;2.50;;;;;;;10.15;100.00;99880.59;5034741;28;20052;-64
2023/10/30 06:35:19;;;;;;;17.20;2.97;;;;;;;10.11;100.00;99870.94;5034510;28;20025;-64
2023/10/30 06:37:45;;;;;;;13.38;2.70;;;;;;;10.14;100.00;99877.94;5034020;28;20490;-63
2023/10/30 06:40:11;;;;;;;8.98;2.40;;;;;;;10.14;100.00;99883.22;5034445;28;20103;-64
2023/10/30 06:42:36;;;;;;;13.00;2.63;;;;;;;10.11;100.00;99889.41;5034626;28;20108;-65
2023/10/30 06:45:02;;;;;;;13.43;2.65;;;;;;;10.11;100.00;99899.09;5033402;28;20522;-65
2023/10/30 06:47:27;;;;;;;14.63;2.40;;;;;;;10.09;100.00;99903.47;5033731;28;20529;-65
2023/10/30 06:49:53;;;;;;;11.05;2.63;;;;;;;10.08;100.00;99899.97;5034524;28;20026;-64
2023/10/30 06:52:18;;;;;;;10.82;2.45;;;;;;;10.09;100.00;99914.03;5034044;28;20035;-65
2023/10/30 06:54:44;;;;;;;15.25;2.67;;;;;;;10.09;100.00;99908.75;5034228;28;20080;-65
2023/10/30 06:57:09;;;;;;;13.25;2.80;;;;;;;10.09;100.00;99904.34;5034120;28;20037;-63
2023/10/30 06:59:35;;;;;;;9.40;2.47;;;;;;;10.13;100.00;99907.88;5034006;28;20483;-65
2023/10/30 07:02:00;;;;;;;12.23;2.50;;;;;;;10.16;100.00;99915.78;5034016;28;20034;-64
2023/10/30 07:04:26;;;;;;;12.73;2.58;;;;;;;10.20;100.00;99925.47;5034077;28;20022;-65
2023/10/30 07:06:51;;;;;;;11.23;2.70;;;;;;;10.22;100.00;99905.22;5033582;28;20563;-64
2023/10/30 07:09:18;;;;;;;9.02;2.53;;;;;;;10.32;100.00;99914.00;5034007;28;20025;-64
2023/10/30 07:11:43;;;;;;;11.10;2.70;;;;;;;10.40;100.00;99906.94;5033867;28;20372;-64
2023/10/30 07:14:09;;;;;;;11.48;3.10;;;;;;;10.55;100.00;99906.88;5033777;28;20049;-65
2023/10/30 07:16:35;;;;;;;12.88;2.88;;;;;;;10.63;100.00;99905.09;5033762;28;20025;-65
2023/10/30 07:19:01;;;;;;;10.13;2.40;;;;;;;10.76;100.00;99909.44;5033608;28;20017;-65
2023/10/30 07:21:28;;;;;;;9.68;2.72;;;;;;;10.89;100.00;99907.59;5032301;28;20120;-65
2023/10/30 07:23:54;;;;;;;11.77;2.40;;;;;;;10.94;100.00;99920.78;5033534;28;20479;-64
2023/10/30 07:26:21;;;;;;;12.70;2.85;;;;;;;10.92;100.00;99910.25;5033359;28;20033;-64
2023/10/30 07:28:46;;;;;;;9.75;2.30;;;;;;;10.93;100.00;99909.34;5033774;28;20030;-65
2023/10/30 07:31:12;;;;;;;11.70;2.58;;;;;;;10.95;100.00;99919.88;5033456;28;20074;-65
2023/10/30 07:33:37;;;;;;;14.88;2.80;;;;;;;10.95;100.00;99925.19;5033333;28;20048;-65
2023/10/30 07:36:05;;;;;;;8.80;2.75;;;;;;;10.95;100.00;99928.69;5033591;28;20036;-65
2023/10/30 07:38:30;;;;;;;10.50;2.50;;;;;;;10.97;100.00;99936.63;5032988;28;20114;-65
2023/10/30 07:40:56;;;;;;;15.15;2.75;;;;;;;11.10;100.00;99935.69;5033274;28;20113;-65
2023/10/30 07:43:21;;;;;;;13.10;2.45;;;;;;;11.25;100.00;99940.84;5033207;28;20018;-65
2023/10/30 07:45:48;;;;;;;12.98;2.90;;;;;;;11.34;100.00;99945.19;5033103;28;20497;-65
2023/10/30 07:48:14;;;;;;;14.60;2.92;;;;;;;11.38;100.00;99954.88;5033075;28;20483;-64
2023/10/30 07:50:39;;;;;;;15.00;2.85;;;;;;;11.42;100.00;99946.03;5033082;28;20061;-64
2023/10/30 07:53:04;;;;;;;14.20;2.95;;;;;;;11.49;100.00;99937.16;5031851;28;20115;-65
2023/10/30 07:55:30;;;;;;;11.55;3.05;;;;;;;11.63;100.00;99930.88;5033221;28;20209;-65
2023/10/30 07:57:56;;;;;;;11.07;2.53;;;;;;;11.74;100.00;99932.56;5031714;28;20025;-64
2023/10/30 08:00:21;;;;;;;8.60;2.30;;;;;;;11.93;100.00;99933.28;5033219;28;20175;-64
2023/10/30 08:02:47;;;;;;;13.70;2.70;;;;;;;12.01;100.00;99935.88;5033265;28;20025;-63
2023/10/30 08:05:15;;;;;;;10.50;2.72;;;;;;;12.11;100.00;99934.00;5033211;28;20509;-65
2023/10/30 08:07:47;;;;;;;9.73;2.60;;;;;;;12.19;100.00;99938.31;5032807;28;20391;-64
2023/10/30 08:10:13;;;;;;;13.82;2.90;;;;;;;12.25;100.00;99934.75;5032907;28;20037;-65
2023/10/30 08:12:40;;;;;;;13.23;2.45;;;;;;;12.28;100.00;99938.22;5031585;28;20057;-64
2023/10/30 08:15:09;;;;;;;9.55;2.50;;;;;;;12.46;100.00;99945.13;5032705;28;20052;-65
2023/10/30 08:17:35;;;;;;;12.30;2.65;;;;;;;12.66;100.00;99941.34;5031487;28;20554;-65
2023/10/30 08:20:00;;;;;;;8.45;2.40;;;;;;;12.84;100.00;99951.69;5033072;28;20112;-65
2023/10/30 08:22:26;;;;;;;12.20;2.63;;;;;;;12.96;100.00;99953.31;5032924;28;20026;-65
2023/10/30 08:24:51;;;;;;;8.95;2.90;;;;;;;12.90;100.00;99942.81;5032798;28;20423;-71
2023/10/30 08:27:17;;;;;;;10.95;2.67;;;;;;;12.94;100.00;99947.19;5033031;28;20120;-66
2023/10/30 08:29:43;;;;;;;12.70;2.78;;;;;;;13.03;100.00;99947.91;5032731;28;20033;-65
2023/10/30 08:32:09;;;;;;;10.32;2.60;;;;;;;13.04;100.00;99954.97;5032735;28;20068;-65
2023/10/30 08:34:34;;;;;;;11.35;3.13;;;;;;;13.01;100.00;99959.44;5032912;28;20065;-64
2023/10/30 08:36:59;;;;;;;11.02;2.60;;;;;;;13.09;100.00;99964.63;5032532;28;20487;-65
2023/10/30 08:39:25;;;;;;;12.23;2.60;;;;;;;13.12;100.00;99965.47;5032385;28;20049;-65
2023/10/30 08:41:51;;;;;;;15.55;2.78;;;;;;;13.12;100.00;99964.59;5032609;28;20036;-65
2023/10/30 08:44:16;;;;;;;8.52;2.30;;;;;;;13.16;100.00;99945.97;5032570;28;20041;-65
2023/10/30 08:46:42;;;;;;;13.32;2.78;;;;;;;13.18;100.00;99953.91;5032496;28;20042;-65
2023/10/30 08:49:07;;;;;;;7.95;2.30;;;;;;;13.15;100.00;99944.22;5032517;28;20029;-64
2023/10/30 08:51:39;;;;;;;12.35;2.45;;;;;;;13.15;100.00;99943.34;5031254;28;20051;-65
2023/10/30 08:54:05;;;;;;;12.07;2.78;;;;;;;13.14;100.00;99957.50;5032726;28;20160;-64
2023/10/30 08:56:30;;;;;;;10.02;2.45;;;;;;;13.03;100.00;99963.84;5032458;28;20080;-65
2023/10/30 08:58:55;;;;;;;13.98;2.80;;;;;;;12.97;100.00;99953.28;5032412;28;20026;-65
2023/10/30 09:01:21;;;;;;;10.30;2.88;;;;;;;12.96;100.00;99953.31;5032653;28;20498;-65
2023/10/30 09:03:46;;;;;;;11.35;2.65;;;;;;;12.96;100.00;99946.25;5032367;28;20519;-64
2023/10/30 09:06:11;;;;;;;14.10;2.55;;;;;;;12.96;100.00;99945.38;5030989;28;20442;-65
2023/10/30 09:08:37;;;;;;;9.57;2.60;;;;;;;12.99;100.00;99953.28;5032097;28;20029;-64
2023/10/30 09:11:02;;;;;;;15.45;2.50;;;;;;;12.98;100.00;99955.06;5034157;28;20026;-64
2023/10/30 09:13:28;;;;;;;10.82;2.47;;;;;;;12.95;100.00;99959.53;5034637;28;20057;-64
2023/10/30 09:15:53;;;;;;;11.13;2.50;;;;;;;12.91;100.00;99957.81;5036090;28;20068;-65
2023/10/30 09:18:18;;;;;;;13.73;2.70;;;;;;;12.90;100.00;99961.38;5034830;28;20041;-65
2023/10/30 09:20:44;;;;;;;14.23;2.38;;;;;;;12.89;100.00;99954.28;5035918;28;20151;-64
2023/10/30 09:23:09;;;;;;;12.20;2.65;;;;;;;12.87;100.00;99958.75;5035749;28;20052;-65
2023/10/30 09:25:35;;;;;;;7.78;2.30;;;;;;;12.88;100.00;99950.75;5035845;28;20022;-65
2023/10/30 09:28:01;;;;;;;8.57;2.30;;;;;;;12.94;100.00;99947.19;5035958;28;20117;-66
2023/10/30 09:30:30;;;;;;;11.15;2.38;;;;;;;12.97;100.00;99942.69;5035808;28;20100;-66
2023/10/30 09:32:59;;;;;;;5.78;2.50;;;;;;;12.97;100.00;99945.34;5035740;28;20040;-66
2023/10/30 09:35:32;;;;;;;10.48;2.50;;;;;;;12.99;100.00;99950.63;5035937;28;20038;-66
2023/10/30 09:37:58;;;;;;;7.72;2.30;;;;;;;12.99;100.00;99948.84;5035165;28;20060;-65
2023/10/30 09:40:27;;;;;;;8.70;2.30;;;;;;;13.00;100.00;99945.31;5035759;28;20371;-65
2023/10/30 09:42:54;;;;;;;7.15;2.58;;;;;;;13.03;100.00;99942.63;5035510;28;20029;-66
2023/10/30 09:45:23;;;;;;;11.35;2.40;;;;;;;13.04;100.00;99944.34;5034170;28;20067;-66
2023/10/30 09:47:53;;;;;;;12.55;2.40;;;;;;;13.10;100.00;99945.16;5035366;28;20415;-65
2023/10/30 09:50:20;;;;;;;8.48;2.42;;;;;;;13.11;100.00;99944.28;5035295;28;20497;-64
2023/10/30 09:52:48;;;;;;;11.23;2.60;;;;;;;13.11;100.00;99939.00;5035141;28;20108;-65
2023/10/30 09:55:17;;;;;;;10.88;2.45;;;;;;;13.12;100.00;99935.44;5035230;28;20022;-65
2023/10/30 09:57:43;;;;;;;10.38;2.47;;;;;;;13.09;100.00;99936.34;5035193;28;20116;-65
2023/10/30 10:00:08;;;;;;;6.97;2.38;;;;;;;13.10;100.00;99921.28;5035084;28;20108;-66
2023/10/30 10:02:34;;;;;;;9.82;2.70;;;;;;;13.12;100.00;99924.81;5034949;28;20033;-65
2023/10/30 10:05:00;;;;;;;10.48;2.20;;;;;;;13.11;100.00;99923.94;5034991;28;20072;-65
2023/10/30 10:07:26;;;;;;;11.23;2.40;;;;;;;13.11;100.00;99918.66;5034882;28;20025;-65
2023/10/30 10:10:02;;;;;;;8.70;2.45;;;;;;;13.13;100.00;99918.59;5035501;28;20091;-65
2023/10/30 10:12:31;;;;;;;9.30;2.22;;;;;;;13.19;100.00;99907.91;5035175;28;20033;-64
2023/10/30 10:14:57;;;;;;;7.53;2.35;;;;;;;13.19;100.00;99907.91;5034964;28;20013;-65
2023/10/30 10:17:23;;;;;;;14.77;2.45;;;;;;;13.21;100.00;99901.69;5035139;28;20072;-65
2023/10/30 10:19:49;;;;;;;10.55;2.40;;;;;;;13.24;100.00;99906.09;5034774;28;20029;-66
2023/10/30 10:22:35;;;;;;;7.30;2.10;;;;;;;13.27;100.00;99914.91;5048835;28;20117;-65
2023/10/30 10:25:02;;;;;;;8.52;2.50;;;;;;;13.30;100.00;99913.97;5035078;28;20030;-65
2023/10/30 10:27:28;;;;;;;11.20;2.30;;;;;;;13.32;100.00;99911.28;5034463;28;20083;-68
2023/10/30 10:29:54;;;;;;;10.52;2.85;;;;;;;13.35;100.00;99913.88;5034894;28;20025;-66
2023/10/30 10:32:27;;;;;;;11.70;2.47;;;;;;;13.33;100.00;99918.34;5034806;28;20356;-66
2023/10/30 10:34:57;;;;;;;10.32;2.38;;;;;;;13.35;100.00;99904.16;5034434;28;20022;-66
2023/10/30 10:37:23;;;;;;;9.45;2.42;;;;;;;13.40;100.00;99917.34;5034394;28;20029;-65
2023/10/30 10:39:50;;;;;;;5.72;2.10;;;;;;;13.42;100.00;99897.84;5034307;28;20502;-66
2023/10/30 10:42:23;;;;;;;7.57;2.28;;;;;;;13.44;100.00;99903.13;5034276;28;20047;-64
2023/10/30 10:44:51;;;;;;;6.15;2.13;;;;;;;13.51;100.00;99899.47;5034245;28;20491;-66
2023/10/30 10:47:18;;;;;;;9.20;2.33;;;;;;;13.48;100.00;99897.75;5034422;28;20029;-64
2023/10/30 10:49:44;;;;;;;5.18;2.20;;;;;;;13.51;100.00;99908.31;5034439;28;20049;-64
2023/10/30 10:52:12;;;;;;;7.18;2.10;;;;;;;13.54;100.00;99907.41;5034112;28;20057;-64
2023/10/30 10:54:51;;;;;;;6.47;2.53;;;;;;;13.56;100.00;99916.19;5033901;28;20048;-64
2023/10/30 10:57:20;;;;;;;7.93;2.05;;;;;;;13.58;100.00;99908.22;5034321;28;20036;-65
2023/10/30 10:59:47;;;;;;;5.40;2.17;;;;;;;13.59;100.00;99892.28;5033135;28;20491;-65
2023/10/30 11:02:21;;;;;;;6.00;2.22;;;;;;;13.63;100.00;99891.31;5033740;28;20026;-66
2023/10/30 11:04:50;;;;;;;5.78;2.10;;;;;;;13.70;100.00;99894.72;5034064;28;20033;-65
2023/10/30 11:07:49;;;;;;;7.70;2.55;;;;;;;13.74;100.00;99894.63;5033411;28;20037;-67
2023/10/30 11:10:33;;;;;;;7.32;2.00;;;;;;;13.72;100.00;99877.88;5030383;28;20037;-65
2023/10/30 11:13:14;;;;;;;7.03;2.08;;;;;;;13.77;100.00;99896.38;5033723;28;20525;-67
2023/10/30 11:15:47;;;;;;;9.00;2.20;;;;;;;13.75;100.00;99893.75;5033611;28;20053;-66